Atlantis — PCDT — position and weather

sailwx.info

Track history (hours):
 
Tides and Currents Weather Stations Pressure Air Temp Water Temp Dewpoint Dewpoint Depression Visibility Wind Speed Wind Dir Waves Ship Positions

Atlantis (Netherlands)

Ship's website: http://www.tallship-company.com/artemis/gb_atlantis.htm

Last reported at 2014-Nov-29 07:32 UTC. Time now 2014-Nov-29 08:33 UTC.
Position N 53°10' E 005°25'.

Length 40 m; draft 4.5 m.

Type: Sailing vessel. MMSI: 246253000.

Date/timePositionNaut miles runAvg speedWind from/ knotsBaromVisibWave heightAir tempDewpointWater temp
2014-Nov-29 07:32N 53°10' E 005°25'0 0.0
2014-Nov-29 06:32N 53°10' E 005°25'0 0.0
2014-Nov-29 05:32N 53°10' E 005°25'0 0.0
2014-Nov-29 04:32N 53°10' E 005°25'0 0.0
2014-Nov-29 03:32N 53°10' E 005°25'0 0.0
2014-Nov-29 02:32N 53°10' E 005°25'0 0.0
2014-Nov-29 01:32N 53°10' E 005°25'0 0.0
2014-Nov-29 00:32N 53°10' E 005°25'0 0.0
2014-Nov-28 23:32N 53°10' E 005°25'0 0.0
2014-Nov-28 22:32N 53°10' E 005°25'0 0.0
2014-Nov-28 21:32N 53°10' E 005°25'0 0.0
2014-Nov-28 20:32N 53°10' E 005°25'0 0.0
2014-Nov-28 19:32N 53°10' E 005°25'0 0.0
2014-Nov-28 18:32N 53°10' E 005°25'0 0.0
2014-Nov-28 17:32N 53°10' E 005°25'0 0.0
2014-Nov-28 16:32N 53°10' E 005°25'0 0.0
2014-Nov-28 15:33N 53°10' E 005°25'0 0.0
2014-Nov-28 14:33N 53°10' E 005°25'0 0.0
2014-Nov-28 13:33N 53°10' E 005°25'0 0.0
2014-Nov-28 12:33N 53°10' E 005°25'0 0.0
2014-Nov-28 11:33N 53°10' E 005°25'0 0.0
2014-Nov-28 10:33N 53°10' E 005°25'7 6.8
2014-Nov-28 09:33N 53°14' E 005°15'6 6.5
2014-Nov-28 08:33N 53°19' E 005°09'7 7.2
2014-Nov-28 07:33N 53°19' E 004°57'3 3.1
2014-Nov-28 06:33N 53°17' E 004°52'7 7.4
2014-Nov-28 05:33N 53°12' E 004°44'115 6.0
2014-Nov-27 10:27N 51°46' E 002°38'5 6.0
2014-Nov-27 09:33N 51°42' E 002°33'6 6.4
2014-Nov-27 08:32N 51°37' E 002°26'8 7.7
2014-Nov-27 07:33N 51°31' E 002°18'10 9.2
2014-Nov-27 06:30N 51°22' E 002°11'9 9.8
2014-Nov-27 05:33N 51°14' E 002°03'1110.7
2014-Nov-27 04:33N 51°08' E 001°50'1111.3
2014-Nov-27 03:33N 50°59' E 001°38'  
Track history (hours):
 
Tides and Currents Weather Stations Pressure Air Temp Water Temp Dewpoint Dewpoint Depression Visibility Wind Speed Wind Dir Waves Ship Positions

Atlantis (Netherlands)

Ship's website: http://www.tallship-company.com/artemis/gb_atlantis.htm

Last reported at 2014-Nov-29 07:32 UTC. Time now 2014-Nov-29 08:33 UTC.
Position N 53°10' E 005°25'.

Length 40 m; draft 4.5 m.

Type: Sailing vessel. MMSI: 246253000.

Date/timePositionNaut miles runAvg speedWind from/ knotsBaromVisibWave heightAir tempDewpointWater temp
2014-Nov-29 07:32N 53°10' E 005°25'0 0.0
2014-Nov-29 06:32N 53°10' E 005°25'0 0.0
2014-Nov-29 05:32N 53°10' E 005°25'0 0.0
2014-Nov-29 04:32N 53°10' E 005°25'0 0.0
2014-Nov-29 03:32N 53°10' E 005°25'0 0.0
2014-Nov-29 02:32N 53°10' E 005°25'0 0.0
2014-Nov-29 01:32N 53°10' E 005°25'0 0.0
2014-Nov-29 00:32N 53°10' E 005°25'0 0.0
2014-Nov-28 23:32N 53°10' E 005°25'0 0.0
2014-Nov-28 22:32N 53°10' E 005°25'0 0.0
2014-Nov-28 21:32N 53°10' E 005°25'0 0.0
2014-Nov-28 20:32N 53°10' E 005°25'0 0.0
2014-Nov-28 19:32N 53°10' E 005°25'0 0.0
2014-Nov-28 18:32N 53°10' E 005°25'0 0.0
2014-Nov-28 17:32N 53°10' E 005°25'0 0.0
2014-Nov-28 16:32N 53°10' E 005°25'0 0.0
2014-Nov-28 15:33N 53°10' E 005°25'0 0.0
2014-Nov-28 14:33N 53°10' E 005°25'0 0.0
2014-Nov-28 13:33N 53°10' E 005°25'0 0.0
2014-Nov-28 12:33N 53°10' E 005°25'0 0.0
2014-Nov-28 11:33N 53°10' E 005°25'0 0.0
2014-Nov-28 10:33N 53°10' E 005°25'7 6.8
2014-Nov-28 09:33N 53°14' E 005°15'6 6.5
2014-Nov-28 08:33N 53°19' E 005°09'7 7.2
2014-Nov-28 07:33N 53°19' E 004°57'3 3.1
2014-Nov-28 06:33N 53°17' E 004°52'7 7.4
2014-Nov-28 05:33N 53°12' E 004°44'115 6.0
2014-Nov-27 10:27N 51°46' E 002°38'5 6.0
2014-Nov-27 09:33N 51°42' E 002°33'6 6.4
2014-Nov-27 08:32N 51°37' E 002°26'8 7.7
2014-Nov-27 07:33N 51°31' E 002°18'10 9.2
2014-Nov-27 06:30N 51°22' E 002°11'9 9.8
2014-Nov-27 05:33N 51°14' E 002°03'1110.7
2014-Nov-27 04:33N 51°08' E 001°50'1111.3
2014-Nov-27 03:33N 50°59' E 001°38'  

Dump ship's entire track history